SUMU/MVD METAR and TAF weather

Enter ICAO airport designator
Station Type Date Time Source
SUMU METAR 2020/07/15 08:00 UTC NOAA

SUMU 150800Z 35003KT CAVOK 02/M05 Q1023 NOSIG


Station Type Date Time Source
SUMU Decoded METAR 2020/07/15 08:00 UTC NOAA

Carrasco, Uruguay (SUMU) 34-50S 056-00W 32M
Jul 15, 2020 - 04:00 AM EDT / 2020.07.15 0800 UTC
Wind: from the N (350 degrees) at 3 MPH (3 KT):0
Visibility: greater than 7 mile(s):0
Temperature: 35 F (2 C)
Dew Point: 23 F (-5 C)
Relative Humidity: 59%
Pressure (altimeter): 30.21 in. Hg (1023 hPa)
ob: SUMU 150800Z 35003KT CAVOK 02/M05 Q1023 NOSIG
cycle: 8

Station Type Date Time Source
SUMU TAF 2020/07/15 06:18 UTC NOAA

TAF SUMU 150530Z 1506/1606 30005KT CAVOK TX11/1518Z TN00/1510Z

Example: see airport list